sensor_id;sensor_type;location;lat;lon;timestamp;pressure;altitude;pressure_sealevel;temperature;humidity
17505;BME280;8870;50.950;11.762;2024-03-17T00:00:42;99086.56;;;3.10;100.00
17505;BME280;8870;50.950;11.762;2024-03-17T00:06:03;99093.22;;;3.02;100.00
17505;BME280;8870;50.950;11.762;2024-03-17T00:11:33;99097.22;;;2.95;100.00
17505;BME280;8870;50.950;11.762;2024-03-17T00:16:50;99110.16;;;2.87;100.00
17505;BME280;8870;50.950;11.762;2024-03-17T00:22:24;99107.31;;;2.75;100.00
17505;BME280;8870;50.950;11.762;2024-03-17T00:27:41;99097.91;;;2.70;100.00
17505;BME280;8870;50.950;11.762;2024-03-17T00:33:16;99118.50;;;2.66;100.00
17505;BME280;8870;50.950;11.762;2024-03-17T00:38:36;99110.63;;;2.65;100.00
17505;BME280;8870;50.950;11.762;2024-03-17T00:44:06;99113.69;;;2.58;100.00
17505;BME280;8870;50.950;11.762;2024-03-17T00:49:24;99110.25;;;2.56;100.00
17505;BME280;8870;50.950;11.762;2024-03-17T00:54:57;99107.09;;;2.50;100.00
17505;BME280;8870;50.950;11.762;2024-03-17T01:00:15;99118.09;;;2.43;100.00
17505;BME280;8870;50.950;11.762;2024-03-17T01:05:45;99108.13;;;2.33;100.00
17505;BME280;8870;50.950;11.762;2024-03-17T01:11:14;99108.56;;;2.25;100.00
17505;BME280;8870;50.950;11.762;2024-03-17T01:16:45;99111.59;;;2.19;100.00
17505;BME280;8870;50.950;11.762;2024-03-17T01:22:02;99112.81;;;2.13;100.00
17505;BME280;8870;50.950;11.762;2024-03-17T01:27:35;99109.41;;;2.11;100.00
17505;BME280;8870;50.950;11.762;2024-03-17T01:32:52;99109.56;;;2.08;100.00
17505;BME280;8870;50.950;11.762;2024-03-17T01:38:22;99112.59;;;2.02;100.00
17505;BME280;8870;50.950;11.762;2024-03-17T01:43:42;99102.44;;;1.94;100.00
17505;BME280;8870;50.950;11.762;2024-03-17T01:49:12;99101.66;;;1.92;100.00
17505;BME280;8870;50.950;11.762;2024-03-17T01:54:29;99109.63;;;1.92;100.00
17505;BME280;8870;50.950;11.762;2024-03-17T02:00:03;99113.22;;;1.91;100.00
17505;BME280;8870;50.950;11.762;2024-03-17T02:05:23;99107.13;;;1.89;100.00
17505;BME280;8870;50.950;11.762;2024-03-17T02:10:55;99107.13;;;1.89;100.00
17505;BME280;8870;50.950;11.762;2024-03-17T02:16:15;99110.91;;;1.84;100.00
17505;BME280;8870;50.950;11.762;2024-03-17T02:21:45;99101.41;;;1.80;100.00
17505;BME280;8870;50.950;11.762;2024-03-17T02:27:05;99102.53;;;1.76;100.00
17505;BME280;8870;50.950;11.762;2024-03-17T02:32:36;99107.19;;;1.73;100.00
17505;BME280;8870;50.950;11.762;2024-03-17T02:37:53;99103.84;;;1.69;100.00
17505;BME280;8870;50.950;11.762;2024-03-17T02:43:26;99093.50;;;1.64;100.00
17505;BME280;8870;50.950;11.762;2024-03-17T02:48:44;99087.31;;;1.64;100.00
17505;BME280;8870;50.950;11.762;2024-03-17T02:54:16;99091.06;;;1.60;100.00
17505;BME280;8870;50.950;11.762;2024-03-17T02:59:36;99089.44;;;1.57;100.00
17505;BME280;8870;50.950;11.762;2024-03-17T03:05:07;99086.97;;;1.54;100.00
17505;BME280;8870;50.950;11.762;2024-03-17T03:10:25;99092.28;;;1.54;100.00
17505;BME280;8870;50.950;11.762;2024-03-17T03:15:59;99084.41;;;1.52;100.00
17505;BME280;8870;50.950;11.762;2024-03-17T03:21:17;99092.38;;;1.52;100.00
17505;BME280;8870;50.950;11.762;2024-03-17T03:26:46;99091.94;;;1.60;100.00
17505;BME280;8870;50.950;11.762;2024-03-17T03:32:06;99096.03;;;1.66;100.00
17505;BME280;8870;50.950;11.762;2024-03-17T03:37:38;99086.75;;;1.73;100.00
17505;BME280;8870;50.950;11.762;2024-03-17T03:42:55;99100.66;;;1.78;100.00
17505;BME280;8870;50.950;11.762;2024-03-17T03:48:29;99097.63;;;1.84;100.00
17505;BME280;8870;50.950;11.762;2024-03-17T03:53:59;99089.31;;;1.91;100.00
17505;BME280;8870;50.950;11.762;2024-03-17T03:59:20;99096.13;;;1.95;100.00
17505;BME280;8870;50.950;11.762;2024-03-17T04:04:53;99095.97;;;1.98;100.00
17505;BME280;8870;50.950;11.762;2024-03-17T04:10:23;99084.28;;;2.00;100.00
17505;BME280;8870;50.950;11.762;2024-03-17T04:15:53;99095.63;;;2.04;100.00
17505;BME280;8870;50.950;11.762;2024-03-17T04:21:13;99100.94;;;2.04;100.00
17505;BME280;8870;50.950;11.762;2024-03-17T04:26:44;99103.59;;;2.04;100.00
17505;BME280;8870;50.950;11.762;2024-03-17T04:32:04;99106.25;;;2.04;100.00
17505;BME280;8870;50.950;11.762;2024-03-17T04:37:37;99101.00;;;2.03;100.00
17505;BME280;8870;50.950;11.762;2024-03-17T04:42:56;99109.19;;;1.99;100.00
17505;BME280;8870;50.950;11.762;2024-03-17T04:48:25;99107.63;;;1.95;100.00
17505;BME280;8870;50.950;11.762;2024-03-17T04:53:45;99113.78;;;1.96;100.00
17505;BME280;8870;50.950;11.762;2024-03-17T04:59:17;99114.56;;;1.98;100.00
17505;BME280;8870;50.950;11.762;2024-03-17T05:04:33;99128.53;;;2.02;100.00
17505;BME280;8870;50.950;11.762;2024-03-17T05:10:07;99119.72;;;2.01;100.00
17505;BME280;8870;50.950;11.762;2024-03-17T05:15:24;99118.78;;;2.02;100.00
17505;BME280;8870;50.950;11.762;2024-03-17T05:21:00;99132.63;;;2.07;100.00
17505;BME280;8870;50.950;11.762;2024-03-17T05:26:20;99136.06;;;2.09;100.00
17505;BME280;8870;50.950;11.762;2024-03-17T05:31:51;99137.78;;;2.10;100.00
17505;BME280;8870;50.950;11.762;2024-03-17T05:37:08;99152.78;;;2.11;100.00
17505;BME280;8870;50.950;11.762;2024-03-17T05:42:44;99159.72;;;2.14;100.00
17505;BME280;8870;50.950;11.762;2024-03-17T05:48:02;99161.34;;;2.17;100.00
17505;BME280;8870;50.950;11.762;2024-03-17T05:53:34;99170.16;;;2.17;100.00
17505;BME280;8870;50.950;11.762;2024-03-17T05:58:56;99174.44;;;2.20;100.00
17505;BME280;8870;50.950;11.762;2024-03-17T06:16:38;99169.94;;;2.36;100.00
17505;BME280;8870;50.950;11.762;2024-03-17T06:22:12;99183.66;;;2.44;100.00
17505;BME280;8870;50.950;11.762;2024-03-17T06:28:46;99179.47;;;2.55;100.00
17505;BME280;8870;50.950;11.762;2024-03-17T06:34:06;99181.50;;;2.66;100.00
17505;BME280;8870;50.950;11.762;2024-03-17T06:39:38;99188.84;;;2.76;100.00
17505;BME280;8870;50.950;11.762;2024-03-17T06:44:56;99186.41;;;2.88;100.00
17505;BME280;8870;50.950;11.762;2024-03-17T06:50:29;99189.25;;;2.99;100.00
17505;BME280;8870;50.950;11.762;2024-03-17T06:55:52;99196.56;;;3.10;100.00
17505;BME280;8870;50.950;11.762;2024-03-17T07:07:26;99203.03;;;3.35;100.00
17505;BME280;8870;50.950;11.762;2024-03-17T07:12:45;99198.78;;;3.47;100.00
17505;BME280;8870;50.950;11.762;2024-03-17T07:18:15;99189.88;;;3.61;100.00
17505;BME280;8870;50.950;11.762;2024-03-17T07:23:36;99200.41;;;3.77;100.00
17505;BME280;8870;50.950;11.762;2024-03-17T07:29:07;99203.25;;;3.88;100.00
17505;BME280;8870;50.950;11.762;2024-03-17T07:34:25;99201.56;;;4.00;100.00
17505;BME280;8870;50.950;11.762;2024-03-17T07:39:59;99213.16;;;4.13;100.00
17505;BME280;8870;50.950;11.762;2024-03-17T07:45:17;99207.66;;;4.29;100.00
17505;BME280;8870;50.950;11.762;2024-03-17T07:50:53;99200.34;;;4.46;100.00
17505;BME280;8870;50.950;11.762;2024-03-17T07:56:29;99204.22;;;4.68;100.00
17505;BME280;8870;50.950;11.762;2024-03-17T08:01:47;99209.91;;;4.89;100.00
17505;BME280;8870;50.950;11.762;2024-03-17T08:07:17;99204.38;;;5.05;100.00
17505;BME280;8870;50.950;11.762;2024-03-17T08:12:37;99210.03;;;5.26;100.00
17505;BME280;8870;50.950;11.762;2024-03-17T08:18:08;99195.28;;;5.46;100.00
17505;BME280;8870;50.950;11.762;2024-03-17T08:23:26;99187.00;;;5.62;100.00
17505;BME280;8870;50.950;11.762;2024-03-17T08:29:05;99185.03;;;5.77;100.00
17505;BME280;8870;50.950;11.762;2024-03-17T08:34:23;99183.72;;;5.83;100.00
17505;BME280;8870;50.950;11.762;2024-03-17T08:39:54;99187.91;;;5.87;100.00
17505;BME280;8870;50.950;11.762;2024-03-17T08:45:13;99189.88;;;5.96;100.00
17505;BME280;8870;50.950;11.762;2024-03-17T08:50:50;99178.72;;;6.15;100.00
17505;BME280;8870;50.950;11.762;2024-03-17T08:56:08;99178.63;;;6.28;100.00
17505;BME280;8870;50.950;11.762;2024-03-17T09:01:41;99171.88;;;6.47;100.00
17505;BME280;8870;50.950;11.762;2024-03-17T09:06:59;99155.91;;;6.70;100.00
17505;BME280;8870;50.950;11.762;2024-03-17T09:12:28;99147.63;;;6.84;100.00
17505;BME280;8870;50.950;11.762;2024-03-17T09:17:48;99138.75;;;6.95;100.00
17505;BME280;8870;50.950;11.762;2024-03-17T09:23:26;99127.09;;;7.07;100.00
17505;BME280;8870;50.950;11.762;2024-03-17T09:28:44;99129.88;;;7.06;100.00
17505;BME280;8870;50.950;11.762;2024-03-17T09:34:16;99119.78;;;7.09;100.00
17505;BME280;8870;50.950;11.762;2024-03-17T09:39:34;99112.09;;;7.28;100.00
17505;BME280;8870;50.950;11.762;2024-03-17T09:45:07;99111.72;;;7.32;100.00
17505;BME280;8870;50.950;11.762;2024-03-17T09:50:28;99116.13;;;7.33;100.00
17505;BME280;8870;50.950;11.762;2024-03-17T09:56:03;99101.22;;;7.40;100.00
17505;BME280;8870;50.950;11.762;2024-03-17T10:01:23;99092.91;;;7.55;100.00
17505;BME280;8870;50.950;11.762;2024-03-17T10:06:55;99095.94;;;7.73;100.00
17505;BME280;8870;50.950;11.762;2024-03-17T10:12:28;99088.84;;;7.72;100.00
17505;BME280;8870;50.950;11.762;2024-03-17T10:17:57;99084.59;;;7.69;100.00
17505;BME280;8870;50.950;11.762;2024-03-17T10:23:17;99077.97;;;7.74;100.00
17505;BME280;8870;50.950;11.762;2024-03-17T10:28:49;99072.13;;;7.80;100.00
17505;BME280;8870;50.950;11.762;2024-03-17T10:34:15;99075.50;;;7.93;100.00
17505;BME280;8870;50.950;11.762;2024-03-17T10:39:51;99060.81;;;7.97;100.00
17505;BME280;8870;50.950;11.762;2024-03-17T10:45:09;99060.81;;;7.97;100.00
17505;BME280;8870;50.950;11.762;2024-03-17T10:50:42;99050.09;;;7.97;100.00
17505;BME280;8870;50.950;11.762;2024-03-17T10:56:11;99049.31;;;8.07;100.00
17505;BME280;8870;50.950;11.762;2024-03-17T11:01:44;99038.78;;;8.15;100.00
17505;BME280;8870;50.950;11.762;2024-03-17T11:07:03;99046.72;;;8.38;100.00
17505;BME280;8870;50.950;11.762;2024-03-17T11:12:44;99033.16;;;8.60;100.00
17505;BME280;8870;50.950;11.762;2024-03-17T11:18:28;99025.13;;;8.70;100.00
17505;BME280;8870;50.950;11.762;2024-03-17T11:24:02;99024.75;;;8.75;100.00
17505;BME280;8870;50.950;11.762;2024-03-17T11:29:29;99026.94;;;8.91;100.00
17505;BME280;8870;50.950;11.762;2024-03-17T11:35:13;99015.63;;;8.97;100.00
17505;BME280;8870;50.950;11.762;2024-03-17T11:40:31;99024.25;;;9.01;100.00
17505;BME280;8870;50.950;11.762;2024-03-17T11:46:03;99026.31;;;9.18;100.00
17505;BME280;8870;50.950;11.762;2024-03-17T11:51:33;99017.56;;;9.26;100.00
17505;BME280;8870;50.950;11.762;2024-03-17T11:57:05;99003.59;;;9.52;100.00
17505;BME280;8870;50.950;11.762;2024-03-17T12:02:26;98985.59;;;9.72;100.00
17505;BME280;8870;50.950;11.762;2024-03-17T12:07:57;98976.97;;;9.78;100.00
17505;BME280;8870;50.950;11.762;2024-03-17T12:13:14;98974.72;;;9.74;100.00
17505;BME280;8870;50.950;11.762;2024-03-17T12:18:47;98970.44;;;9.71;100.00
17505;BME280;8870;50.950;11.762;2024-03-17T12:24:14;98975.97;;;9.69;100.00
17505;BME280;8870;50.950;11.762;2024-03-17T12:29:45;98971.59;;;9.78;100.00
17505;BME280;8870;50.950;11.762;2024-03-17T12:35:12;98967.31;;;9.95;100.00
17505;BME280;8870;50.950;11.762;2024-03-17T12:40:43;98951.13;;;10.15;100.00
17505;BME280;8870;50.950;11.762;2024-03-17T13:54:14;98916.44;;;12.30;100.00
17505;BME280;8870;50.950;11.762;2024-03-17T13:59:49;98908.88;;;12.34;100.00
17505;BME280;8870;50.950;11.762;2024-03-17T14:05:18;98897.13;;;12.52;100.00
17505;BME280;8870;50.950;11.762;2024-03-17T14:11:13;98887.97;;;12.87;100.00
17505;BME280;8870;50.950;11.762;2024-03-17T14:16:32;98880.94;;;13.11;100.00
17505;BME280;8870;50.950;11.762;2024-03-17T14:22:07;98875.53;;;13.28;100.00
17505;BME280;8870;50.950;11.762;2024-03-17T14:28:10;98877.91;;;13.31;100.00
17505;BME280;8870;50.950;11.762;2024-03-17T14:33:55;98865.44;;;13.54;100.00
17505;BME280;8870;50.950;11.762;2024-03-17T14:45:34;98848.38;;;14.27;100.00
17505;BME280;8870;50.950;11.762;2024-03-17T14:51:01;98850.31;;;14.49;100.00
17505;BME280;8870;50.950;11.762;2024-03-17T14:56:31;98846.94;;;14.47;100.00
17505;BME280;8870;50.950;11.762;2024-03-17T15:01:51;98834.81;;;14.27;100.00
17505;BME280;8870;50.950;11.762;2024-03-17T15:07:22;98840.97;;;14.12;100.00
17505;BME280;8870;50.950;11.762;2024-03-17T15:12:41;98834.94;;;13.85;100.00
17505;BME280;8870;50.950;11.762;2024-03-17T15:18:12;98838.38;;;13.54;100.00
17505;BME280;8870;50.950;11.762;2024-03-17T15:23:30;98838.34;;;13.21;100.00
17505;BME280;8870;50.950;11.762;2024-03-17T15:29:02;98841.16;;;12.95;100.00
17505;BME280;8870;50.950;11.762;2024-03-17T15:34:21;98849.69;;;12.66;100.00
17505;BME280;8870;50.950;11.762;2024-03-17T15:39:55;98844.84;;;12.26;100.00
17505;BME280;8870;50.950;11.762;2024-03-17T15:45:13;98844.84;;;12.00;100.00
17505;BME280;8870;50.950;11.762;2024-03-17T15:50:55;98837.91;;;11.71;100.00
17505;BME280;8870;50.950;11.762;2024-03-17T15:56:13;98838.53;;;11.65;100.00
17505;BME280;8870;50.950;11.762;2024-03-17T16:01:45;98831.91;;;11.59;100.00
17505;BME280;8870;50.950;11.762;2024-03-17T16:07:05;98838.56;;;11.47;100.00
17505;BME280;8870;50.950;11.762;2024-03-17T16:12:35;98832.41;;;11.36;100.00
17505;BME280;8870;50.950;11.762;2024-03-17T16:17:52;98830.66;;;11.27;100.00
17505;BME280;8870;50.950;11.762;2024-03-17T16:23:25;98826.16;;;11.09;100.00
17505;BME280;8870;50.950;11.762;2024-03-17T16:28:44;98823.28;;;10.93;100.00
17505;BME280;8870;50.950;11.762;2024-03-17T16:34:15;98822.94;;;10.60;100.00
17505;BME280;8870;50.950;11.762;2024-03-17T16:39:38;98828.03;;;10.35;100.00
17505;BME280;8870;50.950;11.762;2024-03-17T16:45:09;98815.13;;;10.11;100.00
17505;BME280;8870;50.950;11.762;2024-03-17T16:50:34;98810.22;;;9.86;100.00
17505;BME280;8870;50.950;11.762;2024-03-17T16:56:07;98811.56;;;9.63;100.00
17505;BME280;8870;50.950;11.762;2024-03-17T17:01:24;98810.94;;;9.41;100.00
17505;BME280;8870;50.950;11.762;2024-03-17T17:06:58;98814.19;;;9.15;100.00
17505;BME280;8870;50.950;11.762;2024-03-17T17:12:18;98812.78;;;8.91;100.00
17505;BME280;8870;50.950;11.762;2024-03-17T17:17:49;98811.25;;;8.69;100.00
17505;BME280;8870;50.950;11.762;2024-03-17T17:23:09;98802.03;;;8.52;100.00
17505;BME280;8870;50.950;11.762;2024-03-17T17:28:42;98810.84;;;8.33;100.00
17505;BME280;8870;50.950;11.762;2024-03-17T17:34:00;98811.22;;;8.18;100.00
17505;BME280;8870;50.950;11.762;2024-03-17T17:39:32;98808.34;;;8.00;100.00
17505;BME280;8870;50.950;11.762;2024-03-17T17:44:52;98809.56;;;7.86;100.00
17505;BME280;8870;50.950;11.762;2024-03-17T17:50:25;98813.44;;;7.72;100.00
17505;BME280;8870;50.950;11.762;2024-03-17T17:55:56;98824.38;;;7.60;100.00
17505;BME280;8870;50.950;11.762;2024-03-17T18:01:16;98818.78;;;7.42;100.00
17505;BME280;8870;50.950;11.762;2024-03-17T18:06:48;98814.94;;;7.34;100.00
17505;BME280;8870;50.950;11.762;2024-03-17T18:12:05;98819.81;;;7.29;100.00
17505;BME280;8870;50.950;11.762;2024-03-17T18:17:39;98822.88;;;7.24;100.00
17505;BME280;8870;50.950;11.762;2024-03-17T18:22:57;98832.06;;;7.22;100.00
17505;BME280;8870;50.950;11.762;2024-03-17T18:28:28;98821.84;;;7.16;100.00
17505;BME280;8870;50.950;11.762;2024-03-17T18:33:48;98824.31;;;7.07;100.00
17505;BME280;8870;50.950;11.762;2024-03-17T18:39:23;98825.34;;;6.95;100.00
17505;BME280;8870;50.950;11.762;2024-03-17T18:44:52;98817.34;;;6.84;100.00
17505;BME280;8870;50.950;11.762;2024-03-17T18:50:25;98828.84;;;6.74;100.00
17505;BME280;8870;50.950;11.762;2024-03-17T18:55:58;98819.88;;;6.64;100.00
17505;BME280;8870;50.950;11.762;2024-03-17T19:01:16;98829.59;;;6.54;100.00
17505;BME280;8870;50.950;11.762;2024-03-17T19:06:48;98826.56;;;6.47;100.00
17505;BME280;8870;50.950;11.762;2024-03-17T19:12:06;98826.25;;;6.40;100.00
17505;BME280;8870;50.950;11.762;2024-03-17T19:17:37;98820.66;;;6.32;100.00
17505;BME280;8870;50.950;11.762;2024-03-17T19:22:57;98818.59;;;6.24;100.00
17505;BME280;8870;50.950;11.762;2024-03-17T19:28:27;98819.34;;;6.15;100.00
17505;BME280;8870;50.950;11.762;2024-03-17T19:33:44;98832.13;;;6.11;100.00
17505;BME280;8870;50.950;11.762;2024-03-17T19:39:17;98824.69;;;6.04;100.00
17505;BME280;8870;50.950;11.762;2024-03-17T19:44:35;98828.69;;;5.98;100.00
17505;BME280;8870;50.950;11.762;2024-03-17T19:50:07;98831.59;;;5.83;100.00
17505;BME280;8870;50.950;11.762;2024-03-17T20:01:23;98830.25;;;5.66;100.00
17505;BME280;8870;50.950;11.762;2024-03-17T20:06:53;98831.47;;;5.62;100.00
17505;BME280;8870;50.950;11.762;2024-03-17T20:12:15;98832.53;;;5.60;100.00
17505;BME280;8870;50.950;11.762;2024-03-17T20:17:46;98822.34;;;5.53;100.00
17505;BME280;8870;50.950;11.762;2024-03-17T20:23:03;98817.34;;;5.49;100.00
17505;BME280;8870;50.950;11.762;2024-03-17T20:28:36;98816.75;;;5.45;100.00
17505;BME280;8870;50.950;11.762;2024-03-17T20:33:54;98815.03;;;5.44;100.00
17505;BME280;8870;50.950;11.762;2024-03-17T20:39:24;98812.59;;;5.41;100.00
17505;BME280;8870;50.950;11.762;2024-03-17T20:44:48;98807.50;;;5.38;100.00
17505;BME280;8870;50.950;11.762;2024-03-17T20:50:19;98798.13;;;5.32;100.00
17505;BME280;8870;50.950;11.762;2024-03-17T20:55:37;98796.03;;;5.24;100.00
17505;BME280;8870;50.950;11.762;2024-03-17T21:01:13;98801.75;;;5.20;100.00
17505;BME280;8870;50.950;11.762;2024-03-17T21:06:30;98806.59;;;5.15;100.00
17505;BME280;8870;50.950;11.762;2024-03-17T21:12:00;98789.22;;;5.09;100.00
17505;BME280;8870;50.950;11.762;2024-03-17T21:17:20;98795.75;;;5.05;100.00
17505;BME280;8870;50.950;11.762;2024-03-17T21:22:50;98793.56;;;4.99;100.00
17505;BME280;8870;50.950;11.762;2024-03-17T21:28:11;98792.09;;;4.94;100.00
17505;BME280;8870;50.950;11.762;2024-03-17T21:33:44;98783.56;;;4.89;100.00
17505;BME280;8870;50.950;11.762;2024-03-17T21:39:02;98784.03;;;4.83;100.00
17505;BME280;8870;50.950;11.762;2024-03-17T21:44:33;98779.88;;;4.79;100.00
17505;BME280;8870;50.950;11.762;2024-03-17T21:49:59;98782.06;;;4.74;100.00
17505;BME280;8870;50.950;11.762;2024-03-17T21:55:31;98770.88;;;4.69;100.00
17505;BME280;8870;50.950;11.762;2024-03-17T22:00:48;98772.31;;;4.61;100.00
17505;BME280;8870;50.950;11.762;2024-03-17T22:06:23;98769.03;;;4.58;100.00
17505;BME280;8870;50.950;11.762;2024-03-17T22:11:40;98766.69;;;4.53;100.00
17505;BME280;8870;50.950;11.762;2024-03-17T22:17:10;98759.50;;;4.42;100.00
17505;BME280;8870;50.950;11.762;2024-03-17T22:22:30;98759.09;;;4.36;100.00
17505;BME280;8870;50.950;11.762;2024-03-17T22:28:00;98761.00;;;4.34;100.00
17505;BME280;8870;50.950;11.762;2024-03-17T22:33:17;98761.13;;;4.32;100.00
17505;BME280;8870;50.950;11.762;2024-03-17T22:38:49;98761.97;;;4.32;100.00
17505;BME280;8870;50.950;11.762;2024-03-17T22:44:07;98757.72;;;4.30;100.00
17505;BME280;8870;50.950;11.762;2024-03-17T22:49:37;98760.75;;;4.25;100.00
17505;BME280;8870;50.950;11.762;2024-03-17T22:54:57;98753.56;;;4.26;100.00
17505;BME280;8870;50.950;11.762;2024-03-17T23:00:28;98751.03;;;4.24;100.00
17505;BME280;8870;50.950;11.762;2024-03-17T23:05:56;98753.81;;;4.23;100.00
17505;BME280;8870;50.950;11.762;2024-03-17T23:11:31;98740.59;;;4.21;100.00
17505;BME280;8870;50.950;11.762;2024-03-17T23:16:48;98742.50;;;4.19;100.00
17505;BME280;8870;50.950;11.762;2024-03-17T23:22:18;98736.56;;;4.15;100.00
17505;BME280;8870;50.950;11.762;2024-03-17T23:27:40;98732.44;;;4.11;100.00
17505;BME280;8870;50.950;11.762;2024-03-17T23:33:10;98726.22;;;4.11;100.00
17505;BME280;8870;50.950;11.762;2024-03-17T23:38:29;98722.81;;;4.09;100.00
17505;BME280;8870;50.950;11.762;2024-03-17T23:44:01;98724.75;;;4.07;100.00
17505;BME280;8870;50.950;11.762;2024-03-17T23:49:26;98713.56;;;4.01;100.00
17505;BME280;8870;50.950;11.762;2024-03-17T23:54:56;98712.97;;;3.98;100.00
